sensor_id;sensor_type;location;lat;lon;timestamp;P1;durP1;ratioP1;P2;durP2;ratioP2
17494;SDS011;8864;51.970;4.614;2022-09-14T00:01:23;3.47;;;0.80;;
17494;SDS011;8864;51.970;4.614;2022-09-14T00:03:52;3.10;;;0.80;;
17494;SDS011;8864;51.970;4.614;2022-09-14T00:06:20;2.75;;;0.60;;
17494;SDS011;8864;51.970;4.614;2022-09-14T00:08:48;2.58;;;0.77;;
17494;SDS011;8864;51.970;4.614;2022-09-14T00:11:16;3.05;;;0.90;;
17494;SDS011;8864;51.970;4.614;2022-09-14T00:13:46;4.28;;;1.15;;
17494;SDS011;8864;51.970;4.614;2022-09-14T00:16:13;2.85;;;0.80;;
17494;SDS011;8864;51.970;4.614;2022-09-14T00:18:41;5.22;;;0.82;;
17494;SDS011;8864;51.970;4.614;2022-09-14T00:21:09;5.30;;;0.85;;
17494;SDS011;8864;51.970;4.614;2022-09-14T00:23:38;10.45;;;1.13;;
17494;SDS011;8864;51.970;4.614;2022-09-14T00:26:06;6.05;;;0.60;;
17494;SDS011;8864;51.970;4.614;2022-09-14T00:28:35;7.85;;;0.60;;
17494;SDS011;8864;51.970;4.614;2022-09-14T00:31:04;7.43;;;0.63;;
17494;SDS011;8864;51.970;4.614;2022-09-14T00:33:32;10.77;;;1.20;;
17494;SDS011;8864;51.970;4.614;2022-09-14T00:36:03;4.97;;;0.80;;
17494;SDS011;8864;51.970;4.614;2022-09-14T00:38:31;10.25;;;1.20;;
17494;SDS011;8864;51.970;4.614;2022-09-14T00:40:58;2.90;;;0.80;;
17494;SDS011;8864;51.970;4.614;2022-09-14T00:43:25;4.68;;;1.13;;
17494;SDS011;8864;51.970;4.614;2022-09-14T00:45:52;5.05;;;0.80;;
17494;SDS011;8864;51.970;4.614;2022-09-14T00:48:21;4.78;;;1.00;;
17494;SDS011;8864;51.970;4.614;2022-09-14T00:50:51;4.03;;;0.73;;
17494;SDS011;8864;51.970;4.614;2022-09-14T00:53:18;4.57;;;1.00;;
17494;SDS011;8864;51.970;4.614;2022-09-14T00:55:45;2.63;;;0.90;;
17494;SDS011;8864;51.970;4.614;2022-09-14T00:58:13;2.17;;;0.65;;
17494;SDS011;8864;51.970;4.614;2022-09-14T01:00:39;2.50;;;0.98;;
17494;SDS011;8864;51.970;4.614;2022-09-14T01:03:06;1.65;;;0.73;;
17494;SDS011;8864;51.970;4.614;2022-09-14T01:05:38;1.92;;;0.70;;
17494;SDS011;8864;51.970;4.614;2022-09-14T01:08:16;3.00;;;0.80;;
17494;SDS011;8864;51.970;4.614;2022-09-14T01:11:11;2.30;;;0.82;;
17494;SDS011;8864;51.970;4.614;2022-09-14T01:13:53;5.03;;;0.90;;
17494;SDS011;8864;51.970;4.614;2022-09-14T01:16:28;7.47;;;1.10;;
17494;SDS011;8864;51.970;4.614;2022-09-14T01:18:59;1.77;;;0.70;;
17494;SDS011;8864;51.970;4.614;2022-09-14T01:21:31;4.38;;;1.00;;
17494;SDS011;8864;51.970;4.614;2022-09-14T01:24:02;5.40;;;0.70;;
17494;SDS011;8864;51.970;4.614;2022-09-14T01:26:49;2.78;;;0.77;;
17494;SDS011;8864;51.970;4.614;2022-09-14T01:29:30;7.03;;;0.80;;
17494;SDS011;8864;51.970;4.614;2022-09-14T01:32:00;2.53;;;0.77;;
17494;SDS011;8864;51.970;4.614;2022-09-14T01:34:31;8.10;;;0.80;;
17494;SDS011;8864;51.970;4.614;2022-09-14T01:37:04;2.67;;;0.95;;
17494;SDS011;8864;51.970;4.614;2022-09-14T01:39:37;3.10;;;0.80;;
17494;SDS011;8864;51.970;4.614;2022-09-14T01:42:08;5.30;;;0.70;;
17494;SDS011;8864;51.970;4.614;2022-09-14T01:44:39;0.95;;;0.50;;
17494;SDS011;8864;51.970;4.614;2022-09-14T01:47:10;1.65;;;0.60;;
17494;SDS011;8864;51.970;4.614;2022-09-14T01:49:42;8.15;;;1.10;;
17494;SDS011;8864;51.970;4.614;2022-09-14T01:52:17;3.45;;;0.70;;
17494;SDS011;8864;51.970;4.614;2022-09-14T01:54:49;2.25;;;0.65;;
17494;SDS011;8864;51.970;4.614;2022-09-14T01:57:20;2.22;;;0.82;;
17494;SDS011;8864;51.970;4.614;2022-09-14T01:59:52;2.72;;;0.63;;
17494;SDS011;8864;51.970;4.614;2022-09-14T02:02:24;5.78;;;0.85;;
17494;SDS011;8864;51.970;4.614;2022-09-14T02:04:57;4.63;;;0.80;;
17494;SDS011;8864;51.970;4.614;2022-09-14T02:07:28;3.17;;;0.80;;
17494;SDS011;8864;51.970;4.614;2022-09-14T02:09:55;3.97;;;0.85;;
17494;SDS011;8864;51.970;4.614;2022-09-14T02:12:23;2.88;;;0.63;;
17494;SDS011;8864;51.970;4.614;2022-09-14T02:14:52;2.67;;;0.70;;
17494;SDS011;8864;51.970;4.614;2022-09-14T02:17:19;3.42;;;0.80;;
17494;SDS011;8864;51.970;4.614;2022-09-14T02:19:47;2.75;;;0.70;;
17494;SDS011;8864;51.970;4.614;2022-09-14T02:22:17;3.60;;;1.10;;
17494;SDS011;8864;51.970;4.614;2022-09-14T02:24:44;3.08;;;0.65;;
17494;SDS011;8864;51.970;4.614;2022-09-14T02:27:11;2.72;;;0.70;;
17494;SDS011;8864;51.970;4.614;2022-09-14T02:29:38;2.65;;;0.63;;
17494;SDS011;8864;51.970;4.614;2022-09-14T02:32:11;3.67;;;0.60;;
17494;SDS011;8864;51.970;4.614;2022-09-14T02:34:46;2.92;;;0.73;;
17494;SDS011;8864;51.970;4.614;2022-09-14T02:37:19;6.32;;;0.98;;
17494;SDS011;8864;51.970;4.614;2022-09-14T02:39:49;4.80;;;0.82;;
17494;SDS011;8864;51.970;4.614;2022-09-14T02:42:24;4.93;;;0.85;;
17494;SDS011;8864;51.970;4.614;2022-09-14T02:45:01;2.40;;;0.82;;
17494;SDS011;8864;51.970;4.614;2022-09-14T02:47:36;2.65;;;0.65;;
17494;SDS011;8864;51.970;4.614;2022-09-14T02:50:11;4.20;;;0.65;;
17494;SDS011;8864;51.970;4.614;2022-09-14T02:52:49;3.85;;;0.65;;
17494;SDS011;8864;51.970;4.614;2022-09-14T02:55:19;3.50;;;0.73;;
17494;SDS011;8864;51.970;4.614;2022-09-14T02:57:59;4.97;;;1.00;;
17494;SDS011;8864;51.970;4.614;2022-09-14T03:00:27;4.45;;;1.17;;
17494;SDS011;8864;51.970;4.614;2022-09-14T03:02:57;7.07;;;0.98;;
17494;SDS011;8864;51.970;4.614;2022-09-14T03:05:24;3.40;;;0.73;;
17494;SDS011;8864;51.970;4.614;2022-09-14T03:07:50;5.00;;;0.77;;
17494;SDS011;8864;51.970;4.614;2022-09-14T03:10:17;3.72;;;1.02;;
17494;SDS011;8864;51.970;4.614;2022-09-14T03:12:44;5.65;;;0.95;;
17494;SDS011;8864;51.970;4.614;2022-09-14T03:15:11;4.30;;;0.95;;
17494;SDS011;8864;51.970;4.614;2022-09-14T03:17:37;2.53;;;0.63;;
17494;SDS011;8864;51.970;4.614;2022-09-14T03:20:06;3.15;;;0.63;;
17494;SDS011;8864;51.970;4.614;2022-09-14T03:22:33;2.65;;;0.80;;
17494;SDS011;8864;51.970;4.614;2022-09-14T03:25:00;3.58;;;0.70;;
17494;SDS011;8864;51.970;4.614;2022-09-14T03:27:26;5.07;;;0.75;;
17494;SDS011;8864;51.970;4.614;2022-09-14T03:29:53;3.13;;;0.70;;
17494;SDS011;8864;51.970;4.614;2022-09-14T03:32:20;3.05;;;0.70;;
17494;SDS011;8864;51.970;4.614;2022-09-14T03:34:47;3.38;;;0.68;;
17494;SDS011;8864;51.970;4.614;2022-09-14T03:37:15;2.38;;;0.57;;
17494;SDS011;8864;51.970;4.614;2022-09-14T03:39:41;3.47;;;0.70;;
17494;SDS011;8864;51.970;4.614;2022-09-14T03:42:09;4.53;;;1.05;;
17494;SDS011;8864;51.970;4.614;2022-09-14T03:44:36;5.88;;;0.80;;
17494;SDS011;8864;51.970;4.614;2022-09-14T03:47:02;3.85;;;0.75;;
17494;SDS011;8864;51.970;4.614;2022-09-14T03:49:29;4.20;;;0.60;;
17494;SDS011;8864;51.970;4.614;2022-09-14T03:51:56;2.40;;;0.70;;
17494;SDS011;8864;51.970;4.614;2022-09-14T03:54:24;2.88;;;0.60;;
17494;SDS011;8864;51.970;4.614;2022-09-14T03:56:51;2.30;;;0.70;;
17494;SDS011;8864;51.970;4.614;2022-09-14T03:59:19;3.88;;;0.80;;
17494;SDS011;8864;51.970;4.614;2022-09-14T04:01:46;1.83;;;0.60;;
17494;SDS011;8864;51.970;4.614;2022-09-14T04:04:14;3.20;;;0.90;;
17494;SDS011;8864;51.970;4.614;2022-09-14T04:06:41;3.47;;;0.70;;
17494;SDS011;8864;51.970;4.614;2022-09-14T04:09:08;1.52;;;0.63;;
17494;SDS011;8864;51.970;4.614;2022-09-14T04:11:36;1.92;;;0.73;;
17494;SDS011;8864;51.970;4.614;2022-09-14T04:14:03;3.40;;;0.82;;
17494;SDS011;8864;51.970;4.614;2022-09-14T04:16:31;4.93;;;0.80;;
17494;SDS011;8864;51.970;4.614;2022-09-14T04:18:58;1.67;;;0.50;;
17494;SDS011;8864;51.970;4.614;2022-09-14T04:21:25;1.17;;;0.65;;
17494;SDS011;8864;51.970;4.614;2022-09-14T04:23:52;7.80;;;0.88;;
17494;SDS011;8864;51.970;4.614;2022-09-14T04:26:20;3.08;;;0.55;;
17494;SDS011;8864;51.970;4.614;2022-09-14T04:28:50;2.35;;;0.68;;
17494;SDS011;8864;51.970;4.614;2022-09-14T04:31:16;3.92;;;0.80;;
17494;SDS011;8864;51.970;4.614;2022-09-14T04:33:43;2.92;;;0.70;;
17494;SDS011;8864;51.970;4.614;2022-09-14T04:36:13;5.00;;;0.77;;
17494;SDS011;8864;51.970;4.614;2022-09-14T04:38:41;7.70;;;0.82;;
17494;SDS011;8864;51.970;4.614;2022-09-14T04:41:09;7.75;;;0.70;;
17494;SDS011;8864;51.970;4.614;2022-09-14T04:43:37;6.18;;;0.80;;
17494;SDS011;8864;51.970;4.614;2022-09-14T04:46:05;5.28;;;0.57;;
17494;SDS011;8864;51.970;4.614;2022-09-14T04:48:35;3.78;;;1.00;;
17494;SDS011;8864;51.970;4.614;2022-09-14T04:51:02;3.17;;;0.63;;
17494;SDS011;8864;51.970;4.614;2022-09-14T04:53:31;4.47;;;1.02;;
17494;SDS011;8864;51.970;4.614;2022-09-14T04:55:59;2.47;;;0.60;;
17494;SDS011;8864;51.970;4.614;2022-09-14T04:58:26;3.05;;;0.90;;
17494;SDS011;8864;51.970;4.614;2022-09-14T05:00:53;1.52;;;0.70;;
17494;SDS011;8864;51.970;4.614;2022-09-14T05:03:22;4.40;;;0.70;;
17494;SDS011;8864;51.970;4.614;2022-09-14T05:05:48;4.35;;;0.98;;
17494;SDS011;8864;51.970;4.614;2022-09-14T05:08:15;3.10;;;0.93;;
17494;SDS011;8864;51.970;4.614;2022-09-14T05:10:42;4.82;;;0.63;;
17494;SDS011;8864;51.970;4.614;2022-09-14T05:13:09;3.83;;;0.70;;
17494;SDS011;8864;51.970;4.614;2022-09-14T05:15:35;2.15;;;0.70;;
17494;SDS011;8864;51.970;4.614;2022-09-14T05:18:02;2.83;;;0.82;;
17494;SDS011;8864;51.970;4.614;2022-09-14T05:20:30;2.35;;;0.90;;
17494;SDS011;8864;51.970;4.614;2022-09-14T05:22:59;4.53;;;1.00;;
17494;SDS011;8864;51.970;4.614;2022-09-14T05:25:26;2.92;;;0.65;;
17494;SDS011;8864;51.970;4.614;2022-09-14T05:27:53;5.85;;;0.90;;
17494;SDS011;8864;51.970;4.614;2022-09-14T05:30:19;2.05;;;0.80;;
17494;SDS011;8864;51.970;4.614;2022-09-14T05:32:46;8.55;;;0.85;;
17494;SDS011;8864;51.970;4.614;2022-09-14T05:35:13;2.95;;;0.88;;
17494;SDS011;8864;51.970;4.614;2022-09-14T05:37:41;5.65;;;1.23;;
17494;SDS011;8864;51.970;4.614;2022-09-14T05:40:08;5.07;;;1.00;;
17494;SDS011;8864;51.970;4.614;2022-09-14T05:42:36;10.50;;;1.10;;
17494;SDS011;8864;51.970;4.614;2022-09-14T05:45:03;9.40;;;1.10;;
17494;SDS011;8864;51.970;4.614;2022-09-14T05:47:30;7.57;;;1.05;;
17494;SDS011;8864;51.970;4.614;2022-09-14T05:49:57;6.75;;;0.90;;
17494;SDS011;8864;51.970;4.614;2022-09-14T05:52:24;3.15;;;1.02;;
17494;SDS011;8864;51.970;4.614;2022-09-14T05:54:52;7.07;;;0.93;;
17494;SDS011;8864;51.970;4.614;2022-09-14T05:57:18;4.78;;;0.90;;
17494;SDS011;8864;51.970;4.614;2022-09-14T05:59:45;6.20;;;1.30;;
17494;SDS011;8864;51.970;4.614;2022-09-14T06:02:12;5.68;;;1.00;;
17494;SDS011;8864;51.970;4.614;2022-09-14T06:04:39;4.20;;;0.70;;
17494;SDS011;8864;51.970;4.614;2022-09-14T06:07:06;4.13;;;0.98;;
17494;SDS011;8864;51.970;4.614;2022-09-14T06:09:33;5.45;;;0.77;;
17494;SDS011;8864;51.970;4.614;2022-09-14T06:12:01;7.68;;;1.10;;
17494;SDS011;8864;51.970;4.614;2022-09-14T06:14:28;4.82;;;1.10;;
17494;SDS011;8864;51.970;4.614;2022-09-14T06:16:54;4.50;;;0.70;;
17494;SDS011;8864;51.970;4.614;2022-09-14T06:19:22;7.10;;;0.98;;
17494;SDS011;8864;51.970;4.614;2022-09-14T06:21:49;3.25;;;0.80;;
17494;SDS011;8864;51.970;4.614;2022-09-14T06:24:15;4.75;;;0.80;;
17494;SDS011;8864;51.970;4.614;2022-09-14T06:26:42;7.65;;;1.05;;
17494;SDS011;8864;51.970;4.614;2022-09-14T06:29:10;3.63;;;0.82;;
17494;SDS011;8864;51.970;4.614;2022-09-14T06:31:37;2.78;;;0.82;;
17494;SDS011;8864;51.970;4.614;2022-09-14T06:34:04;1.52;;;0.70;;
17494;SDS011;8864;51.970;4.614;2022-09-14T06:36:31;2.95;;;0.85;;
17494;SDS011;8864;51.970;4.614;2022-09-14T06:38:58;5.97;;;0.90;;
17494;SDS011;8864;51.970;4.614;2022-09-14T06:41:25;3.67;;;0.77;;
17494;SDS011;8864;51.970;4.614;2022-09-14T06:43:54;4.97;;;1.05;;
17494;SDS011;8864;51.970;4.614;2022-09-14T06:46:24;3.08;;;1.17;;
17494;SDS011;8864;51.970;4.614;2022-09-14T06:48:53;4.93;;;1.33;;
17494;SDS011;8864;51.970;4.614;2022-09-14T06:51:23;8.80;;;1.52;;
17494;SDS011;8864;51.970;4.614;2022-09-14T06:53:54;12.27;;;2.25;;
17494;SDS011;8864;51.970;4.614;2022-09-14T06:56:23;6.72;;;1.83;;
17494;SDS011;8864;51.970;4.614;2022-09-14T06:58:50;7.40;;;1.40;;
17494;SDS011;8864;51.970;4.614;2022-09-14T07:01:18;13.60;;;1.90;;
17494;SDS011;8864;51.970;4.614;2022-09-14T07:03:47;3.97;;;1.35;;
17494;SDS011;8864;51.970;4.614;2022-09-14T07:06:17;13.38;;;2.35;;
17494;SDS011;8864;51.970;4.614;2022-09-14T07:08:46;10.30;;;2.28;;
17494;SDS011;8864;51.970;4.614;2022-09-14T07:11:14;9.10;;;1.90;;
17494;SDS011;8864;51.970;4.614;2022-09-14T07:13:42;10.05;;;2.20;;
17494;SDS011;8864;51.970;4.614;2022-09-14T07:16:09;8.13;;;1.38;;
17494;SDS011;8864;51.970;4.614;2022-09-14T07:18:36;6.38;;;1.40;;
17494;SDS011;8864;51.970;4.614;2022-09-14T07:21:05;5.30;;;1.20;;
17494;SDS011;8864;51.970;4.614;2022-09-14T07:23:34;5.10;;;1.20;;
17494;SDS011;8864;51.970;4.614;2022-09-14T07:26:03;2.42;;;0.98;;
17494;SDS011;8864;51.970;4.614;2022-09-14T07:28:31;5.13;;;1.15;;
17494;SDS011;8864;51.970;4.614;2022-09-14T07:30:59;3.70;;;1.17;;
17494;SDS011;8864;51.970;4.614;2022-09-14T07:33:26;3.25;;;1.00;;
17494;SDS011;8864;51.970;4.614;2022-09-14T07:35:53;4.82;;;1.23;;
17494;SDS011;8864;51.970;4.614;2022-09-14T07:38:21;4.40;;;1.23;;
17494;SDS011;8864;51.970;4.614;2022-09-14T07:40:48;3.15;;;1.17;;
17494;SDS011;8864;51.970;4.614;2022-09-14T07:43:15;6.68;;;1.40;;
17494;SDS011;8864;51.970;4.614;2022-09-14T07:45:41;3.60;;;1.20;;
17494;SDS011;8864;51.970;4.614;2022-09-14T07:48:08;6.80;;;1.10;;
17494;SDS011;8864;51.970;4.614;2022-09-14T07:50:35;6.88;;;1.17;;
17494;SDS011;8864;51.970;4.614;2022-09-14T07:53:02;4.10;;;1.02;;
17494;SDS011;8864;51.970;4.614;2022-09-14T07:55:30;6.28;;;1.05;;
17494;SDS011;8864;51.970;4.614;2022-09-14T07:57:57;5.32;;;1.10;;
17494;SDS011;8864;51.970;4.614;2022-09-14T08:00:24;6.03;;;1.00;;
17494;SDS011;8864;51.970;4.614;2022-09-14T08:02:51;5.93;;;0.90;;
17494;SDS011;8864;51.970;4.614;2022-09-14T08:05:19;5.60;;;1.10;;
17494;SDS011;8864;51.970;4.614;2022-09-14T08:07:46;5.82;;;1.00;;
17494;SDS011;8864;51.970;4.614;2022-09-14T08:10:13;5.03;;;1.42;;
17494;SDS011;8864;51.970;4.614;2022-09-14T08:12:41;5.75;;;1.35;;
17494;SDS011;8864;51.970;4.614;2022-09-14T08:15:08;6.75;;;1.50;;
17494;SDS011;8864;51.970;4.614;2022-09-14T08:17:35;5.90;;;1.30;;
17494;SDS011;8864;51.970;4.614;2022-09-14T08:20:03;3.42;;;0.85;;
17494;SDS011;8864;51.970;4.614;2022-09-14T08:22:30;5.78;;;1.40;;
17494;SDS011;8864;51.970;4.614;2022-09-14T08:24:57;6.07;;;1.13;;
17494;SDS011;8864;51.970;4.614;2022-09-14T08:27:24;4.30;;;1.25;;
17494;SDS011;8864;51.970;4.614;2022-09-14T08:29:52;8.27;;;1.38;;
17494;SDS011;8864;51.970;4.614;2022-09-14T08:32:19;9.20;;;1.38;;
17494;SDS011;8864;51.970;4.614;2022-09-14T08:34:46;4.18;;;0.93;;
17494;SDS011;8864;51.970;4.614;2022-09-14T08:37:13;4.05;;;1.10;;
17494;SDS011;8864;51.970;4.614;2022-09-14T08:39:40;6.72;;;1.17;;
17494;SDS011;8864;51.970;4.614;2022-09-14T08:42:08;3.80;;;1.40;;
17494;SDS011;8864;51.970;4.614;2022-09-14T08:44:41;5.45;;;1.08;;
17494;SDS011;8864;51.970;4.614;2022-09-14T08:47:12;4.18;;;1.10;;
17494;SDS011;8864;51.970;4.614;2022-09-14T08:49:47;4.45;;;1.17;;
17494;SDS011;8864;51.970;4.614;2022-09-14T08:52:20;6.32;;;1.20;;
17494;SDS011;8864;51.970;4.614;2022-09-14T08:54:51;3.63;;;1.10;;
17494;SDS011;8864;51.970;4.614;2022-09-14T08:57:22;4.97;;;1.30;;
17494;SDS011;8864;51.970;4.614;2022-09-14T08:59:55;4.22;;;1.10;;
17494;SDS011;8864;51.970;4.614;2022-09-14T09:02:35;4.53;;;0.95;;
17494;SDS011;8864;51.970;4.614;2022-09-14T09:05:19;10.13;;;1.33;;
17494;SDS011;8864;51.970;4.614;2022-09-14T09:07:54;3.13;;;0.90;;
17494;SDS011;8864;51.970;4.614;2022-09-14T09:10:27;6.68;;;1.17;;
17494;SDS011;8864;51.970;4.614;2022-09-14T09:12:56;6.97;;;1.10;;
17494;SDS011;8864;51.970;4.614;2022-09-14T09:15:25;5.47;;;1.00;;
17494;SDS011;8864;51.970;4.614;2022-09-14T09:17:57;6.57;;;1.17;;
17494;SDS011;8864;51.970;4.614;2022-09-14T09:20:28;5.65;;;1.00;;
17494;SDS011;8864;51.970;4.614;2022-09-14T09:23:01;6.97;;;1.30;;
17494;SDS011;8864;51.970;4.614;2022-09-14T09:25:40;7.70;;;1.33;;
17494;SDS011;8864;51.970;4.614;2022-09-14T09:28:23;3.97;;;0.98;;
17494;SDS011;8864;51.970;4.614;2022-09-14T09:30:53;2.42;;;0.70;;
17494;SDS011;8864;51.970;4.614;2022-09-14T09:33:24;6.30;;;0.98;;
17494;SDS011;8864;51.970;4.614;2022-09-14T09:35:53;7.15;;;1.13;;
17494;SDS011;8864;51.970;4.614;2022-09-14T09:38:21;5.13;;;0.90;;
17494;SDS011;8864;51.970;4.614;2022-09-14T09:40:51;3.33;;;0.90;;
17494;SDS011;8864;51.970;4.614;2022-09-14T09:43:19;4.32;;;1.02;;
17494;SDS011;8864;51.970;4.614;2022-09-14T09:45:48;8.70;;;1.10;;
17494;SDS011;8864;51.970;4.614;2022-09-14T09:48:18;9.30;;;1.25;;
17494;SDS011;8864;51.970;4.614;2022-09-14T09:50:50;8.32;;;0.95;;
17494;SDS011;8864;51.970;4.614;2022-09-14T09:53:23;7.18;;;1.30;;
17494;SDS011;8864;51.970;4.614;2022-09-14T09:55:50;6.93;;;1.20;;
17494;SDS011;8864;51.970;4.614;2022-09-14T09:58:28;4.38;;;1.00;;
17494;SDS011;8864;51.970;4.614;2022-09-14T10:00:59;3.85;;;0.95;;
17494;SDS011;8864;51.970;4.614;2022-09-14T10:03:37;4.18;;;0.75;;
17494;SDS011;8864;51.970;4.614;2022-09-14T10:06:08;4.85;;;0.82;;
17494;SDS011;8864;51.970;4.614;2022-09-14T10:08:40;5.75;;;0.90;;
17494;SDS011;8864;51.970;4.614;2022-09-14T10:13:55;7.35;;;1.15;;
17494;SDS011;8864;51.970;4.614;2022-09-14T10:16:22;4.30;;;0.80;;
17494;SDS011;8864;51.970;4.614;2022-09-14T10:18:53;6.60;;;1.10;;
17494;SDS011;8864;51.970;4.614;2022-09-14T10:21:23;6.93;;;1.23;;
17494;SDS011;8864;51.970;4.614;2022-09-14T10:24:00;10.40;;;1.02;;
17494;SDS011;8864;51.970;4.614;2022-09-14T10:26:34;5.22;;;1.02;;
17494;SDS011;8864;51.970;4.614;2022-09-14T10:29:25;3.67;;;1.00;;
17494;SDS011;8864;51.970;4.614;2022-09-14T10:31:59;3.33;;;0.88;;
17494;SDS011;8864;51.970;4.614;2022-09-14T10:34:31;8.45;;;1.10;;
17494;SDS011;8864;51.970;4.614;2022-09-14T10:37:05;4.00;;;0.70;;
17494;SDS011;8864;51.970;4.614;2022-09-14T10:39:40;8.40;;;1.02;;
17494;SDS011;8864;51.970;4.614;2022-09-14T10:42:15;4.90;;;0.98;;
17494;SDS011;8864;51.970;4.614;2022-09-14T10:44:52;7.25;;;1.08;;
17494;SDS011;8864;51.970;4.614;2022-09-14T10:50:47;3.55;;;0.80;;
17494;SDS011;8864;51.970;4.614;2022-09-14T10:53:28;5.32;;;1.00;;
17494;SDS011;8864;51.970;4.614;2022-09-14T10:56:05;8.50;;;1.17;;
17494;SDS011;8864;51.970;4.614;2022-09-14T10:58:41;3.65;;;0.90;;
17494;SDS011;8864;51.970;4.614;2022-09-14T11:01:31;3.67;;;0.88;;
17494;SDS011;8864;51.970;4.614;2022-09-14T11:04:15;3.95;;;0.95;;
17494;SDS011;8864;51.970;4.614;2022-09-14T11:06:56;4.03;;;1.10;;
17494;SDS011;8864;51.970;4.614;2022-09-14T11:09:33;2.75;;;0.90;;
17494;SDS011;8864;51.970;4.614;2022-09-14T11:12:10;6.25;;;1.23;;
17494;SDS011;8864;51.970;4.614;2022-09-14T11:14:43;5.50;;;1.17;;
17494;SDS011;8864;51.970;4.614;2022-09-14T11:17:26;6.97;;;1.20;;
17494;SDS011;8864;51.970;4.614;2022-09-14T11:20:16;4.28;;;0.90;;
17494;SDS011;8864;51.970;4.614;2022-09-14T11:22:55;4.82;;;1.08;;
17494;SDS011;8864;51.970;4.614;2022-09-14T11:25:31;8.15;;;1.15;;
17494;SDS011;8864;51.970;4.614;2022-09-14T11:28:05;8.57;;;1.30;;
17494;SDS011;8864;51.970;4.614;2022-09-14T11:30:38;9.10;;;1.30;;
17494;SDS011;8864;51.970;4.614;2022-09-14T11:33:10;5.28;;;1.00;;
17494;SDS011;8864;51.970;4.614;2022-09-14T11:35:44;4.18;;;1.15;;
17494;SDS011;8864;51.970;4.614;2022-09-14T11:38:13;1.98;;;0.90;;
17494;SDS011;8864;51.970;4.614;2022-09-14T11:40:44;4.95;;;0.95;;
17494;SDS011;8864;51.970;4.614;2022-09-14T11:43:16;4.80;;;1.08;;
17494;SDS011;8864;51.970;4.614;2022-09-14T11:45:47;4.45;;;0.80;;
17494;SDS011;8864;51.970;4.614;2022-09-14T11:48:21;3.58;;;0.90;;
17494;SDS011;8864;51.970;4.614;2022-09-14T11:50:55;6.53;;;0.90;;
17494;SDS011;8864;51.970;4.614;2022-09-14T11:53:37;3.03;;;1.15;;
17494;SDS011;8864;51.970;4.614;2022-09-14T11:56:13;5.63;;;1.23;;
17494;SDS011;8864;51.970;4.614;2022-09-14T11:58:51;1.75;;;0.80;;
17494;SDS011;8864;51.970;4.614;2022-09-14T12:04:09;2.75;;;1.20;;
17494;SDS011;8864;51.970;4.614;2022-09-14T12:06:47;3.65;;;1.20;;
17494;SDS011;8864;51.970;4.614;2022-09-14T12:12:33;4.45;;;1.20;;
17494;SDS011;8864;51.970;4.614;2022-09-14T12:15:03;7.30;;;1.38;;
17494;SDS011;8864;51.970;4.614;2022-09-14T12:17:40;2.30;;;1.00;;
17494;SDS011;8864;51.970;4.614;2022-09-14T12:23:12;2.20;;;1.10;;
17494;SDS011;8864;51.970;4.614;2022-09-14T12:25:52;5.75;;;1.40;;
17494;SDS011;8864;51.970;4.614;2022-09-14T12:28:26;5.90;;;1.50;;
17494;SDS011;8864;51.970;4.614;2022-09-14T12:31:06;5.97;;;1.30;;
17494;SDS011;8864;51.970;4.614;2022-09-14T12:33:42;5.85;;;1.10;;
17494;SDS011;8864;51.970;4.614;2022-09-14T12:39:23;7.68;;;1.50;;
17494;SDS011;8864;51.970;4.614;2022-09-14T12:44:52;3.97;;;1.10;;
17494;SDS011;8864;51.970;4.614;2022-09-14T12:47:37;5.07;;;1.13;;
17494;SDS011;8864;51.970;4.614;2022-09-14T12:50:22;3.70;;;0.98;;
17494;SDS011;8864;51.970;4.614;2022-09-14T12:55:49;3.92;;;1.50;;
17494;SDS011;8864;51.970;4.614;2022-09-14T12:58:27;4.47;;;0.98;;
17494;SDS011;8864;51.970;4.614;2022-09-14T13:01:09;4.28;;;1.00;;
17494;SDS011;8864;51.970;4.614;2022-09-14T13:03:46;5.53;;;1.30;;
17494;SDS011;8864;51.970;4.614;2022-09-14T13:06:15;5.82;;;1.00;;
17494;SDS011;8864;51.970;4.614;2022-09-14T13:08:43;5.50;;;1.17;;
17494;SDS011;8864;51.970;4.614;2022-09-14T13:11:19;9.65;;;1.48;;
17494;SDS011;8864;51.970;4.614;2022-09-14T13:13:48;5.95;;;1.02;;
17494;SDS011;8864;51.970;4.614;2022-09-14T13:16:18;6.32;;;1.02;;
17494;SDS011;8864;51.970;4.614;2022-09-14T13:18:57;3.53;;;0.80;;
17494;SDS011;8864;51.970;4.614;2022-09-14T13:21:25;6.88;;;0.85;;
17494;SDS011;8864;51.970;4.614;2022-09-14T13:23:52;6.78;;;1.02;;
17494;SDS011;8864;51.970;4.614;2022-09-14T13:26:19;5.80;;;1.45;;
17494;SDS011;8864;51.970;4.614;2022-09-14T13:28:50;7.03;;;1.20;;
17494;SDS011;8864;51.970;4.614;2022-09-14T13:31:20;4.78;;;1.30;;
17494;SDS011;8864;51.970;4.614;2022-09-14T13:33:52;5.45;;;1.20;;
17494;SDS011;8864;51.970;4.614;2022-09-14T13:36:20;3.75;;;1.20;;
17494;SDS011;8864;51.970;4.614;2022-09-14T13:38:49;7.55;;;1.40;;
17494;SDS011;8864;51.970;4.614;2022-09-14T13:41:18;3.88;;;1.10;;
17494;SDS011;8864;51.970;4.614;2022-09-14T13:43:47;5.47;;;1.17;;
17494;SDS011;8864;51.970;4.614;2022-09-14T13:46:19;2.42;;;1.00;;
17494;SDS011;8864;51.970;4.614;2022-09-14T13:48:48;5.10;;;1.05;;
17494;SDS011;8864;51.970;4.614;2022-09-14T13:51:16;9.23;;;1.27;;
17494;SDS011;8864;51.970;4.614;2022-09-14T13:53:48;7.35;;;1.08;;
17494;SDS011;8864;51.970;4.614;2022-09-14T13:56:20;1.95;;;0.80;;
17494;SDS011;8864;51.970;4.614;2022-09-14T13:59:11;5.82;;;1.10;;
17494;SDS011;8864;51.970;4.614;2022-09-14T14:01:50;5.55;;;1.55;;
17494;SDS011;8864;51.970;4.614;2022-09-14T14:04:21;6.28;;;1.08;;
17494;SDS011;8864;51.970;4.614;2022-09-14T14:07:00;7.93;;;1.25;;
17494;SDS011;8864;51.970;4.614;2022-09-14T14:09:37;7.00;;;1.27;;
17494;SDS011;8864;51.970;4.614;2022-09-14T14:12:06;6.07;;;0.98;;
17494;SDS011;8864;51.970;4.614;2022-09-14T14:14:35;4.75;;;1.25;;
17494;SDS011;8864;51.970;4.614;2022-09-14T14:19:51;7.15;;;1.20;;
17494;SDS011;8864;51.970;4.614;2022-09-14T14:22:20;4.65;;;1.15;;
17494;SDS011;8864;51.970;4.614;2022-09-14T14:24:51;8.68;;;1.60;;
17494;SDS011;8864;51.970;4.614;2022-09-14T14:27:24;5.88;;;1.08;;
17494;SDS011;8864;51.970;4.614;2022-09-14T14:29:54;6.63;;;0.95;;
17494;SDS011;8864;51.970;4.614;2022-09-14T14:32:23;4.20;;;1.15;;
17494;SDS011;8864;51.970;4.614;2022-09-14T14:34:49;4.88;;;0.95;;
17494;SDS011;8864;51.970;4.614;2022-09-14T14:37:17;8.20;;;1.40;;
17494;SDS011;8864;51.970;4.614;2022-09-14T14:39:44;7.13;;;1.38;;
17494;SDS011;8864;51.970;4.614;2022-09-14T14:42:12;4.60;;;1.20;;
17494;SDS011;8864;51.970;4.614;2022-09-14T14:44:39;4.68;;;1.05;;
17494;SDS011;8864;51.970;4.614;2022-09-14T14:47:08;5.60;;;1.10;;
17494;SDS011;8864;51.970;4.614;2022-09-14T14:49:37;6.22;;;1.40;;
17494;SDS011;8864;51.970;4.614;2022-09-14T14:52:04;6.93;;;0.90;;
17494;SDS011;8864;51.970;4.614;2022-09-14T14:54:31;7.90;;;1.20;;
17494;SDS011;8864;51.970;4.614;2022-09-14T14:56:58;6.65;;;1.20;;
17494;SDS011;8864;51.970;4.614;2022-09-14T14:59:26;9.25;;;1.35;;
17494;SDS011;8864;51.970;4.614;2022-09-14T15:01:55;8.20;;;1.20;;
17494;SDS011;8864;51.970;4.614;2022-09-14T15:04:23;3.85;;;1.15;;
17494;SDS011;8864;51.970;4.614;2022-09-14T15:06:51;3.92;;;1.15;;
17494;SDS011;8864;51.970;4.614;2022-09-14T15:09:19;4.75;;;1.20;;
17494;SDS011;8864;51.970;4.614;2022-09-14T15:11:51;5.30;;;1.23;;
17494;SDS011;8864;51.970;4.614;2022-09-14T15:14:19;4.05;;;1.00;;
17494;SDS011;8864;51.970;4.614;2022-09-14T15:16:47;7.80;;;1.20;;
17494;SDS011;8864;51.970;4.614;2022-09-14T15:19:14;3.53;;;1.13;;
17494;SDS011;8864;51.970;4.614;2022-09-14T15:21:41;6.30;;;1.15;;
17494;SDS011;8864;51.970;4.614;2022-09-14T15:24:10;5.55;;;1.02;;
17494;SDS011;8864;51.970;4.614;2022-09-14T15:26:37;5.47;;;1.10;;
17494;SDS011;8864;51.970;4.614;2022-09-14T15:29:04;2.70;;;0.80;;
17494;SDS011;8864;51.970;4.614;2022-09-14T15:31:31;2.03;;;0.95;;
17494;SDS011;8864;51.970;4.614;2022-09-14T15:33:58;4.65;;;0.90;;
17494;SDS011;8864;51.970;4.614;2022-09-14T15:36:35;3.75;;;0.93;;
17494;SDS011;8864;51.970;4.614;2022-09-14T15:39:03;4.38;;;0.70;;
17494;SDS011;8864;51.970;4.614;2022-09-14T15:41:33;2.67;;;0.80;;
17494;SDS011;8864;51.970;4.614;2022-09-14T15:44:00;4.22;;;1.10;;
17494;SDS011;8864;51.970;4.614;2022-09-14T15:46:27;8.00;;;1.20;;